createdAt,value
2022-08-10T00:00:38.525Z,21.40
2022-08-10T00:01:54.836Z,21.00
2022-08-10T00:03:05.120Z,21.40
2022-08-10T00:04:21.169Z,21.40
2022-08-10T00:05:43.777Z,21.40
2022-08-10T00:07:05.864Z,21.40
2022-08-10T00:08:08.524Z,21.40
2022-08-10T00:09:14.162Z,21.30
2022-08-10T00:10:24.800Z,21.30
2022-08-10T00:11:37.381Z,22.70
2022-08-10T00:12:53.793Z,21.30
2022-08-10T00:14:06.042Z,21.30
2022-08-10T00:15:52.685Z,21.30
2022-08-10T00:16:47.423Z,21.30
2022-08-10T00:17:56.686Z,21.30
2022-08-10T00:19:05.592Z,21.30
2022-08-10T00:20:13.324Z,21.30
2022-08-10T00:21:27.051Z,21.30
2022-08-10T00:22:31.578Z,21.50
2022-08-10T00:23:44.682Z,21.40
2022-08-10T00:24:51.072Z,21.40
2022-08-10T00:26:04.008Z,21.40
2022-08-10T00:28:01.040Z,21.40
2022-08-10T00:28:43.306Z,21.50
2022-08-10T00:29:49.534Z,21.50
2022-08-10T00:31:04.263Z,21.50
2022-08-10T00:32:13.962Z,21.50
2022-08-10T00:33:23.398Z,21.40
2022-08-10T00:34:36.463Z,21.40
2022-08-10T00:35:41.076Z,21.40
2022-08-10T00:36:46.173Z,21.40
2022-08-10T00:38:00.273Z,21.40
2022-08-10T00:39:16.019Z,21.40
2022-08-10T00:40:37.708Z,21.40
2022-08-10T00:41:45.461Z,21.40
2022-08-10T00:44:20.964Z,21.30
2022-08-10T00:45:32.630Z,21.30
2022-08-10T00:46:45.893Z,21.30
2022-08-10T00:48:08.964Z,21.30
2022-08-10T00:49:15.664Z,21.30
2022-08-10T00:50:29.583Z,21.30
2022-08-10T00:51:43.055Z,21.30
2022-08-10T00:52:55.540Z,21.10
2022-08-10T00:54:05.894Z,21.20
2022-08-10T00:55:16.757Z,21.10
2022-08-10T00:57:12.634Z,21.10
2022-08-10T00:57:55.472Z,21.10
2022-08-10T00:59:00.736Z,21.10
2022-08-10T01:00:12.602Z,21.10
2022-08-10T01:02:07.691Z,21.10
2022-08-10T01:02:46.829Z,21.10
2022-08-10T01:04:39.767Z,21.10
2022-08-10T01:05:29.057Z,21.10
2022-08-10T01:06:42.713Z,21.20
2022-08-10T01:08:16.242Z,21.10
2022-08-10T01:09:37.268Z,21.20
2022-08-10T01:10:56.794Z,21.10
2022-08-10T01:12:39.427Z,21.10
2022-08-10T01:13:58.101Z,21.10
2022-08-10T01:15:16.212Z,21.10
2022-08-10T01:16:44.902Z,21.20
2022-08-10T01:18:01.835Z,21.10
2022-08-10T01:19:34.977Z,21.10
2022-08-10T01:20:54.127Z,21.20
2022-08-10T01:22:34.688Z,21.20
2022-08-10T01:24:25.171Z,21.20
2022-08-10T01:26:11.049Z,21.20
2022-08-10T01:27:29.512Z,21.10
2022-08-10T01:28:50.487Z,21.00
2022-08-10T01:30:07.276Z,21.00
2022-08-10T01:31:24.684Z,21.00
2022-08-10T01:32:44.972Z,21.00
2022-08-10T01:34:02.349Z,21.00
2022-08-10T01:35:20.470Z,21.00
2022-08-10T01:36:35.870Z,21.00
2022-08-10T01:37:54.056Z,21.00
2022-08-10T01:39:02.445Z,21.00
2022-08-10T01:40:13.852Z,21.10
2022-08-10T01:41:25.282Z,21.00
2022-08-10T01:42:34.907Z,21.00
2022-08-10T01:43:45.254Z,21.00
2022-08-10T01:44:59.871Z,21.00
2022-08-10T01:46:14.194Z,21.00
2022-08-10T01:48:01.431Z,21.00
2022-08-10T01:49:10.552Z,21.00
2022-08-10T01:50:33.644Z,21.00
2022-08-10T01:51:49.281Z,20.90
2022-08-10T01:52:59.796Z,20.90
2022-08-10T01:54:14.999Z,20.80
2022-08-10T01:55:22.935Z,20.80
2022-08-10T01:56:35.456Z,20.80
2022-08-10T01:57:48.092Z,20.80
2022-08-10T01:58:59.103Z,20.30
2022-08-10T02:00:04.197Z,20.80
2022-08-10T02:01:17.603Z,20.80
2022-08-10T02:02:24.522Z,20.90
2022-08-10T02:03:33.400Z,20.80
2022-08-10T02:04:40.356Z,20.90
2022-08-10T02:05:56.061Z,20.90
2022-08-10T02:07:02.186Z,20.90
2022-08-10T02:08:26.890Z,20.90
2022-08-10T02:09:42.142Z,20.90
2022-08-10T02:10:53.902Z,20.90
2022-08-10T02:12:07.066Z,22.00
2022-08-10T02:13:16.670Z,21.00
2022-08-10T02:14:26.100Z,20.90
2022-08-10T02:16:01.620Z,21.00
2022-08-10T02:17:58.416Z,20.90
2022-08-10T02:18:46.735Z,21.00
2022-08-10T02:19:56.549Z,21.00
2022-08-10T02:21:09.628Z,21.00
2022-08-10T02:22:37.778Z,21.00
2022-08-10T02:23:59.345Z,20.20
2022-08-10T02:25:08.849Z,22.10
2022-08-10T02:26:15.812Z,21.00
2022-08-10T02:27:26.359Z,21.00
2022-08-10T02:28:38.698Z,20.90
2022-08-10T02:29:51.878Z,21.00
2022-08-10T02:33:32.137Z,21.00
2022-08-10T02:34:42.585Z,21.00
2022-08-10T02:35:55.012Z,20.90
2022-08-10T02:37:04.214Z,20.90
2022-08-10T02:38:21.117Z,20.90
2022-08-10T02:39:26.428Z,20.90
2022-08-10T02:42:18.308Z,20.80
2022-08-10T02:45:14.337Z,20.80
2022-08-10T02:45:21.245Z,20.80
2022-08-10T02:45:23.046Z,20.90
2022-08-10T02:46:36.441Z,20.90
2022-08-10T02:47:51.694Z,20.90
2022-08-10T02:49:03.872Z,20.90
2022-08-10T02:50:13.683Z,20.90
2022-08-10T02:52:06.997Z,20.80
2022-08-10T02:52:57.978Z,20.80
2022-08-10T02:54:08.630Z,20.80
2022-08-10T02:55:18.768Z,20.80
2022-08-10T02:56:27.720Z,20.70
2022-08-10T02:58:15.566Z,20.70
2022-08-10T02:59:10.222Z,20.70
2022-08-10T03:00:13.576Z,20.70
2022-08-10T03:01:22.147Z,20.70
2022-08-10T03:02:31.176Z,20.70
2022-08-10T03:03:44.425Z,20.70
2022-08-10T03:04:57.999Z,20.70
2022-08-10T03:06:06.631Z,20.70
2022-08-10T03:07:17.288Z,20.70
2022-08-10T03:08:27.793Z,20.70
2022-08-10T03:09:33.919Z,20.70
2022-08-10T03:10:42.513Z,20.80
2022-08-10T03:12:37.254Z,20.80
2022-08-10T03:13:15.025Z,20.70
2022-08-10T03:14:21.224Z,20.80
2022-08-10T03:15:29.193Z,20.70
2022-08-10T03:16:36.108Z,20.80
2022-08-10T03:17:40.733Z,20.80
2022-08-10T03:18:47.110Z,20.80
2022-08-10T03:20:33.398Z,20.80
2022-08-10T03:21:21.478Z,20.80
2022-08-10T03:22:26.114Z,19.80
2022-08-10T03:23:31.481Z,20.90
2022-08-10T03:24:36.641Z,20.90
2022-08-10T03:25:53.223Z,20.90
2022-08-10T03:27:01.157Z,20.90
2022-08-10T03:28:05.204Z,20.80
2022-08-10T03:29:11.701Z,20.90
2022-08-10T03:30:29.938Z,21.10
2022-08-10T03:31:40.303Z,20.90
2022-08-10T03:32:45.597Z,20.80
2022-08-10T03:33:50.597Z,20.80
2022-08-10T03:34:55.692Z,20.80
2022-08-10T03:36:42.227Z,20.80
2022-08-10T03:37:23.364Z,22.20
2022-08-10T03:38:27.461Z,20.80
2022-08-10T03:39:30.227Z,20.70
2022-08-10T03:40:45.999Z,20.80
2022-08-10T03:41:55.866Z,20.80
2022-08-10T03:43:01.706Z,20.80
2022-08-10T03:44:08.321Z,20.90
2022-08-10T03:45:13.486Z,21.00
2022-08-10T03:46:21.611Z,21.10
2022-08-10T03:47:29.647Z,21.30
2022-08-10T03:48:48.448Z,21.50
2022-08-10T03:49:58.563Z,21.70
2022-08-10T03:51:08.922Z,21.90
2022-08-10T03:52:14.544Z,22.00
2022-08-10T03:53:24.872Z,22.20
2022-08-10T03:54:44.116Z,22.40
2022-08-10T03:56:30.253Z,22.60
2022-08-10T03:57:12.759Z,22.70
2022-08-10T03:58:16.069Z,22.70
2022-08-10T03:59:20.985Z,22.70
2022-08-10T04:00:24.754Z,22.60
2022-08-10T04:02:43.693Z,22.60
2022-08-10T04:02:54.718Z,22.40
2022-08-10T04:03:57.950Z,22.30
2022-08-10T04:05:19.079Z,22.30
2022-08-10T04:06:22.038Z,22.30
2022-08-10T04:07:26.306Z,22.30
2022-08-10T04:08:29.468Z,22.30
2022-08-10T04:09:54.283Z,21.30
2022-08-10T04:10:58.321Z,22.30
2022-08-10T04:12:01.997Z,22.40
2022-08-10T04:13:05.609Z,22.50
2022-08-10T04:14:38.492Z,22.60
2022-08-10T04:15:34.385Z,22.60
2022-08-10T04:16:39.189Z,22.70
2022-08-10T04:18:00.221Z,22.70
2022-08-10T04:19:08.268Z,22.80
2022-08-10T04:20:18.836Z,22.80
2022-08-10T04:21:30.699Z,22.80
2022-08-10T04:22:36.689Z,22.80
2022-08-10T04:23:53.029Z,22.70
2022-08-10T04:25:05.214Z,22.70
2022-08-10T04:26:09.606Z,22.70
2022-08-10T04:27:14.399Z,22.70
2022-08-10T04:28:20.583Z,22.70
2022-08-10T04:29:23.909Z,22.80
2022-08-10T04:30:34.069Z,22.80
2022-08-10T04:31:41.448Z,22.90
2022-08-10T04:32:51.997Z,22.90
2022-08-10T04:33:59.905Z,23.00
2022-08-10T04:35:15.793Z,23.00
2022-08-10T04:36:23.594Z,23.00
2022-08-10T04:37:29.424Z,23.10
2022-08-10T04:38:38.631Z,23.20
2022-08-10T04:39:41.885Z,23.20
2022-08-10T04:40:47.959Z,23.30
2022-08-10T04:41:54.767Z,23.40
2022-08-10T04:43:07.509Z,23.40
2022-08-10T04:44:16.590Z,23.40
2022-08-10T04:45:20.451Z,23.50
2022-08-10T04:46:42.949Z,23.50
2022-08-10T04:48:00.794Z,23.60
2022-08-10T04:49:53.961Z,23.60
2022-08-10T04:50:29.988Z,23.70
2022-08-10T04:51:36.586Z,23.80
2022-08-10T04:52:39.191Z,23.90
2022-08-10T04:54:05.411Z,23.90
2022-08-10T04:55:08.388Z,24.00
2022-08-10T04:56:12.574Z,24.00
2022-08-10T04:57:15.371Z,24.10
2022-08-10T04:58:19.367Z,24.20
2022-08-10T04:59:26.579Z,24.20
2022-08-10T05:00:32.673Z,24.30
2022-08-10T05:02:28.565Z,24.30
2022-08-10T05:03:03.537Z,24.40
2022-08-10T05:04:33.956Z,24.40
2022-08-10T05:05:30.860Z,24.40
2022-08-10T05:06:36.144Z,24.40
2022-08-10T05:07:53.830Z,24.40
2022-08-10T05:09:02.305Z,24.40
2022-08-10T05:10:09.272Z,24.50
2022-08-10T05:11:23.996Z,24.60
2022-08-10T05:12:27.903Z,24.60
2022-08-10T05:13:34.657Z,24.60
2022-08-10T05:14:37.543Z,24.70
2022-08-10T05:15:44.290Z,24.70
2022-08-10T05:16:47.592Z,24.70
2022-08-10T05:18:08.596Z,24.70
2022-08-10T05:19:12.881Z,24.80
2022-08-10T05:20:17.910Z,24.80
2022-08-10T05:22:01.427Z,24.80
2022-08-10T05:22:47.721Z,24.80
2022-08-10T05:23:50.844Z,24.90
2022-08-10T05:24:54.750Z,24.40
2022-08-10T05:26:01.278Z,24.90
2022-08-10T05:27:09.325Z,24.90
2022-08-10T05:28:14.631Z,25.00
2022-08-10T05:29:17.517Z,25.10
2022-08-10T05:30:23.498Z,25.10
2022-08-10T05:31:28.033Z,25.20
2022-08-10T05:32:55.638Z,25.30
2022-08-10T05:33:58.085Z,25.40
2022-08-10T05:35:00.857Z,25.40
2022-08-10T05:36:07.366Z,25.50
2022-08-10T05:38:10.636Z,25.50
2022-08-10T05:38:40.090Z,25.50
2022-08-10T05:39:46.535Z,25.50
2022-08-10T05:40:51.988Z,25.60
2022-08-10T05:41:56.396Z,25.60
2022-08-10T05:43:08.495Z,25.80
2022-08-10T05:44:13.821Z,25.90
2022-08-10T05:45:22.607Z,25.90
2022-08-10T05:46:27.343Z,26.00
2022-08-10T05:48:54.509Z,26.00
2022-08-10T05:49:00.633Z,27.00
2022-08-10T05:50:05.184Z,26.00
2022-08-10T05:51:11.080Z,26.00
2022-08-10T05:52:16.410Z,26.00
2022-08-10T05:54:00.909Z,26.00
2022-08-10T05:54:46.982Z,26.00
2022-08-10T05:55:49.732Z,26.00
2022-08-10T05:56:58.335Z,26.00
2022-08-10T05:58:02.769Z,25.90
2022-08-10T05:59:09.616Z,26.00
2022-08-10T06:00:37.042Z,26.00
2022-08-10T06:02:31.747Z,26.00
2022-08-10T06:03:14.672Z,26.00
2022-08-10T06:04:26.126Z,26.00
2022-08-10T06:05:36.241Z,26.10
2022-08-10T06:06:41.930Z,25.20
2022-08-10T06:07:53.488Z,26.30
2022-08-10T06:09:00.188Z,25.20
2022-08-10T06:10:10.088Z,26.60
2022-08-10T06:12:35.261Z,26.00
2022-08-10T06:12:55.021Z,26.80
2022-08-10T06:14:20.160Z,25.80
2022-08-10T06:15:52.254Z,26.80
2022-08-10T06:17:03.027Z,27.00
2022-08-10T06:18:07.440Z,27.10
2022-08-10T06:19:15.121Z,27.10
2022-08-10T06:20:22.542Z,26.70
2022-08-10T06:21:30.551Z,27.10
2022-08-10T06:22:37.151Z,27.10
2022-08-10T06:23:45.257Z,27.00
2022-08-10T06:25:18.381Z,27.00
2022-08-10T06:26:19.613Z,27.00
2022-08-10T06:27:34.538Z,27.00
2022-08-10T06:29:02.385Z,27.10
2022-08-10T06:30:20.333Z,27.10
2022-08-10T06:31:47.151Z,27.00
2022-08-10T06:32:57.050Z,27.30
2022-08-10T06:34:03.296Z,27.30
2022-08-10T06:35:10.772Z,27.40
2022-08-10T06:36:15.490Z,27.50
2022-08-10T06:37:23.698Z,27.50
2022-08-10T06:38:32.562Z,26.20
2022-08-10T06:39:37.953Z,27.70
2022-08-10T06:40:48.105Z,27.80
2022-08-10T06:42:16.429Z,27.90
2022-08-10T06:43:27.150Z,27.80
2022-08-10T06:44:40.053Z,27.70
2022-08-10T06:46:08.379Z,27.70
2022-08-10T06:47:15.488Z,27.60
2022-08-10T06:48:32.445Z,27.60
2022-08-10T06:49:39.513Z,27.60
2022-08-10T06:50:59.125Z,27.60
2022-08-10T06:52:05.662Z,27.60
2022-08-10T06:53:15.420Z,27.70
2022-08-10T06:54:25.043Z,27.80
2022-08-10T06:55:40.163Z,27.90
2022-08-10T06:57:17.286Z,28.00
2022-08-10T06:58:26.742Z,28.10
2022-08-10T06:59:37.711Z,28.10
2022-08-10T07:00:45.119Z,28.00
2022-08-10T07:01:54.700Z,27.90
2022-08-10T07:03:08.189Z,27.80
2022-08-10T07:04:32.372Z,27.70
2022-08-10T07:05:45.966Z,27.70
2022-08-10T07:06:55.475Z,27.50
2022-08-10T07:08:03.483Z,27.50
2022-08-10T07:09:10.658Z,27.50
2022-08-10T07:10:26.319Z,27.50
2022-08-10T07:11:53.415Z,27.50
2022-08-10T07:13:02.598Z,27.50
2022-08-10T07:14:15.526Z,27.50
2022-08-10T07:15:59.660Z,27.40
2022-08-10T07:16:53.445Z,27.40
2022-08-10T07:17:59.764Z,27.30
2022-08-10T07:19:09.402Z,27.30
2022-08-10T07:20:19.237Z,27.30
2022-08-10T07:21:27.171Z,27.40
2022-08-10T07:23:26.900Z,27.50
2022-08-10T07:24:04.378Z,27.50
2022-08-10T07:25:12.146Z,27.60
2022-08-10T07:26:17.535Z,27.60
2022-08-10T07:27:22.293Z,27.70
2022-08-10T07:28:29.582Z,27.70
2022-08-10T07:29:53.444Z,27.80
2022-08-10T07:30:59.346Z,27.80
2022-08-10T07:32:04.986Z,27.80
2022-08-10T07:33:11.994Z,27.80
2022-08-10T07:34:28.641Z,27.80
2022-08-10T07:35:42.145Z,27.50
2022-08-10T07:36:50.318Z,27.30
2022-08-10T07:37:57.679Z,27.40
2022-08-10T07:39:01.428Z,27.40
2022-08-10T07:40:09.551Z,27.40
2022-08-10T07:41:15.481Z,27.50
2022-08-10T07:42:25.899Z,28.00
2022-08-10T07:43:40.757Z,27.70
2022-08-10T07:44:46.583Z,27.80
2022-08-10T07:45:53.090Z,27.80
2022-08-10T07:47:04.292Z,27.80
2022-08-10T07:48:15.375Z,27.80
2022-08-10T07:49:23.640Z,27.60
2022-08-10T07:50:33.013Z,27.60
2022-08-10T07:51:42.424Z,27.60
2022-08-10T07:52:50.550Z,27.60
2022-08-10T07:54:05.573Z,27.70
2022-08-10T07:55:15.390Z,27.70
2022-08-10T07:56:47.787Z,27.70
2022-08-10T07:57:57.323Z,27.70
2022-08-10T07:59:11.228Z,27.70
2022-08-10T08:00:17.882Z,29.80
2022-08-10T08:01:26.350Z,27.90
2022-08-10T08:02:36.862Z,28.00
2022-08-10T08:03:43.988Z,28.20
2022-08-10T08:04:49.381Z,28.30
2022-08-10T08:06:03.203Z,28.50
2022-08-10T08:07:10.976Z,28.50
2022-08-10T08:08:19.875Z,28.30
2022-08-10T08:09:29.646Z,28.30
2022-08-10T08:10:37.201Z,28.20
2022-08-10T08:11:43.907Z,28.20
2022-08-10T08:12:49.706Z,28.10
2022-08-10T08:13:55.580Z,28.00
2022-08-10T08:16:15.729Z,27.90
2022-08-10T08:16:28.440Z,28.60
2022-08-10T08:17:36.870Z,27.80
2022-08-10T08:18:50.931Z,27.70
2022-08-10T08:20:10.817Z,27.70
2022-08-10T08:24:06.050Z,27.60
2022-08-10T08:24:12.989Z,27.60
2022-08-10T08:24:31.967Z,26.00
2022-08-10T08:25:36.985Z,27.20
2022-08-10T08:26:41.914Z,27.00
2022-08-10T08:27:57.308Z,27.00
2022-08-10T08:29:04.941Z,26.90
2022-08-10T08:30:12.773Z,27.00
2022-08-10T08:31:20.419Z,27.00
2022-08-10T08:32:27.397Z,27.00
2022-08-10T08:33:41.496Z,27.00
2022-08-10T08:34:49.399Z,26.80
2022-08-10T08:35:57.193Z,26.60
2022-08-10T08:37:04.377Z,26.60
2022-08-10T08:38:32.977Z,26.50
2022-08-10T08:39:34.325Z,26.50
2022-08-10T08:40:39.677Z,26.50
2022-08-10T08:42:10.300Z,26.40
2022-08-10T08:43:51.007Z,26.40
2022-08-10T08:45:13.130Z,26.60
2022-08-10T08:46:38.852Z,26.70
2022-08-10T08:48:10.630Z,26.80
2022-08-10T08:50:05.250Z,26.90
2022-08-10T08:52:06.077Z,26.90
2022-08-10T08:53:02.133Z,26.90
2022-08-10T08:54:24.496Z,26.90
2022-08-10T08:56:03.031Z,26.90
2022-08-10T08:57:50.746Z,27.00
2022-08-10T08:59:10.946Z,27.20
2022-08-10T09:00:22.347Z,27.30
2022-08-10T09:01:50.130Z,27.40
2022-08-10T09:03:27.928Z,27.60
2022-08-10T09:04:48.571Z,27.70
2022-08-10T09:06:07.996Z,27.80
2022-08-10T09:08:00.434Z,27.90
2022-08-10T09:09:29.166Z,28.10
2022-08-10T09:10:43.100Z,28.20
2022-08-10T09:12:04.554Z,28.30
2022-08-10T09:13:19.813Z,28.20
2022-08-10T09:14:31.294Z,28.10
2022-08-10T09:15:42.406Z,28.90
2022-08-10T09:16:57.878Z,27.80
2022-08-10T09:18:16.002Z,27.90
2022-08-10T09:19:35.361Z,27.90
2022-08-10T09:20:48.200Z,28.00
2022-08-10T09:22:18.523Z,28.00
2022-08-10T09:24:04.193Z,28.20
2022-08-10T09:25:15.914Z,28.00
2022-08-10T09:26:21.606Z,27.70
2022-08-10T09:27:35.484Z,27.70
2022-08-10T09:28:42.827Z,27.70
2022-08-10T09:29:56.964Z,27.60
2022-08-10T09:31:22.397Z,27.70
2022-08-10T09:36:17.012Z,27.70
2022-08-10T09:36:24.243Z,27.50
2022-08-10T09:36:29.438Z,26.90
2022-08-10T09:37:42.640Z,27.10
2022-08-10T09:39:06.696Z,26.90
2022-08-10T09:40:59.304Z,26.70
2022-08-10T09:41:51.088Z,26.70
2022-08-10T09:43:25.953Z,26.80
2022-08-10T09:44:57.938Z,26.90
2022-08-10T09:46:14.263Z,27.00
2022-08-10T09:47:58.688Z,27.10
2022-08-10T09:49:07.029Z,27.20
2022-08-10T09:51:16.051Z,27.30
2022-08-10T09:52:08.162Z,27.40
2022-08-10T09:53:21.241Z,27.40
2022-08-10T09:54:39.376Z,27.50
2022-08-10T09:56:18.431Z,27.60
2022-08-10T09:57:55.258Z,27.70
2022-08-10T09:59:27.281Z,27.70
2022-08-10T10:00:41.830Z,27.90
2022-08-10T10:02:02.431Z,27.90
2022-08-10T10:03:20.594Z,24.60
2022-08-10T10:04:40.407Z,27.90
2022-08-10T10:05:56.575Z,27.70
2022-08-10T10:07:07.474Z,27.60
2022-08-10T10:08:21.805Z,27.40
2022-08-10T10:09:32.644Z,27.30
2022-08-10T10:10:55.978Z,27.10
2022-08-10T10:12:16.464Z,27.00
2022-08-10T10:14:02.195Z,26.80
2022-08-10T10:15:28.250Z,26.70
2022-08-10T10:16:57.468Z,26.60
2022-08-10T10:18:23.716Z,26.40
2022-08-10T10:19:45.079Z,26.20
2022-08-10T10:21:08.773Z,26.10
2022-08-10T10:22:34.079Z,26.00
2022-08-10T10:24:21.856Z,25.90
2022-08-10T10:25:50.961Z,26.00
2022-08-10T10:27:00.534Z,26.10
2022-08-10T10:28:20.809Z,26.30
2022-08-10T10:29:58.566Z,26.30
2022-08-10T10:31:16.735Z,26.30
2022-08-10T10:32:36.675Z,26.30
2022-08-10T10:33:53.331Z,26.10
2022-08-10T10:35:04.874Z,26.00
2022-08-10T10:36:11.670Z,26.00
2022-08-10T10:37:19.501Z,26.10
2022-08-10T10:38:29.483Z,26.10
2022-08-10T10:39:37.725Z,26.30
2022-08-10T10:41:01.780Z,26.30
2022-08-10T10:42:42.319Z,24.40
2022-08-10T10:43:56.938Z,26.30
2022-08-10T10:45:15.792Z,26.30
2022-08-10T10:46:34.739Z,26.40
2022-08-10T10:47:57.147Z,27.60
2022-08-10T10:49:18.794Z,26.20
2022-08-10T10:50:36.337Z,26.00
2022-08-10T10:51:48.661Z,25.80
2022-08-10T10:53:06.300Z,25.90
2022-08-10T10:54:13.924Z,25.90
2022-08-10T10:55:24.587Z,25.90
2022-08-10T10:56:37.347Z,25.90
2022-08-10T10:58:00.222Z,26.00
2022-08-10T10:59:56.437Z,26.00
2022-08-10T11:01:17.359Z,26.00
2022-08-10T11:02:46.469Z,26.10
2022-08-10T11:04:09.495Z,25.90
2022-08-10T11:05:24.846Z,25.90
2022-08-10T11:06:46.575Z,25.90
2022-08-10T11:08:00.966Z,25.90
2022-08-10T11:10:06.965Z,25.90
2022-08-10T11:10:47.909Z,25.80
2022-08-10T11:12:02.803Z,25.70
2022-08-10T11:14:26.222Z,25.60
2022-08-10T11:15:00.232Z,25.60
2022-08-10T11:16:11.933Z,25.50
2022-08-10T11:17:23.649Z,25.50
2022-08-10T11:18:51.862Z,25.40
2022-08-10T11:20:11.117Z,25.50
2022-08-10T11:21:25.109Z,25.50
2022-08-10T11:22:36.841Z,25.50
2022-08-10T11:24:42.938Z,25.60
2022-08-10T11:25:22.502Z,25.60
2022-08-10T11:26:37.250Z,25.70
2022-08-10T11:27:50.270Z,25.50
2022-08-10T11:29:06.658Z,25.50
2022-08-10T11:30:18.750Z,25.50
2022-08-10T11:31:34.223Z,25.50
2022-08-10T11:32:56.246Z,25.60
2022-08-10T11:34:47.075Z,25.70
2022-08-10T11:35:39.800Z,25.70
2022-08-10T11:36:53.830Z,25.70
2022-08-10T11:38:33.031Z,25.80
2022-08-10T11:39:48.447Z,25.80
2022-08-10T11:42:06.658Z,25.90
2022-08-10T11:42:44.354Z,25.90
2022-08-10T11:43:58.741Z,26.10
2022-08-10T11:45:12.131Z,26.10
2022-08-10T11:46:28.872Z,26.10
2022-08-10T11:47:40.606Z,26.30
2022-08-10T11:48:53.559Z,26.30
2022-08-10T11:50:07.718Z,26.50
2022-08-10T11:51:22.138Z,26.60
2022-08-10T11:52:40.842Z,26.70
2022-08-10T11:53:54.497Z,26.90
2022-08-10T11:55:12.451Z,27.10
2022-08-10T11:56:28.382Z,27.00
2022-08-10T11:57:54.351Z,26.80
2022-08-10T11:59:18.250Z,26.90
2022-08-10T12:00:21.602Z,27.00
2022-08-10T12:01:32.915Z,27.00
2022-08-10T12:02:41.805Z,27.00
2022-08-10T12:03:48.060Z,27.10
2022-08-10T12:04:54.860Z,27.10
2022-08-10T12:06:00.186Z,27.00
2022-08-10T12:10:04.071Z,27.00
2022-08-10T12:10:05.906Z,26.90
2022-08-10T12:10:12.617Z,26.60
2022-08-10T12:11:24.747Z,26.50
2022-08-10T12:12:35.753Z,26.40
2022-08-10T12:14:10.780Z,26.30
2022-08-10T12:15:23.052Z,26.10
2022-08-10T12:16:31.952Z,26.00
2022-08-10T12:17:45.119Z,26.00
2022-08-10T12:18:54.851Z,25.90
2022-08-10T12:20:08.057Z,25.90
2022-08-10T12:21:21.697Z,25.90
2022-08-10T12:22:38.402Z,25.90
2022-08-10T12:24:03.301Z,25.90
2022-08-10T12:25:56.841Z,26.00
2022-08-10T12:26:51.261Z,26.20
2022-08-10T12:28:03.017Z,26.40
2022-08-10T12:29:16.689Z,26.50
2022-08-10T12:30:31.190Z,26.70
2022-08-10T12:31:44.513Z,26.70
2022-08-10T12:33:01.745Z,26.70
2022-08-10T12:34:22.601Z,26.90
2022-08-10T12:35:34.454Z,27.10
2022-08-10T12:36:43.741Z,27.20
2022-08-10T12:38:01.841Z,27.30
2022-08-10T12:39:12.868Z,27.40
2022-08-10T12:40:35.127Z,27.60
2022-08-10T12:41:47.601Z,27.70
2022-08-10T12:43:02.461Z,27.80
2022-08-10T12:44:41.274Z,27.80
2022-08-10T12:46:06.702Z,27.90
2022-08-10T12:47:22.383Z,27.80
2022-08-10T12:48:36.313Z,27.80
2022-08-10T12:50:30.264Z,27.70
2022-08-10T12:51:22.082Z,27.90
2022-08-10T12:52:33.484Z,27.90
2022-08-10T12:53:51.264Z,27.80
2022-08-10T12:54:58.801Z,27.90
2022-08-10T12:56:04.995Z,28.00
2022-08-10T12:57:11.956Z,28.00
2022-08-10T12:58:59.010Z,27.80
2022-08-10T12:59:47.317Z,27.80
2022-08-10T13:01:15.142Z,27.80
2022-08-10T13:02:28.506Z,27.80
2022-08-10T13:04:21.855Z,27.80
2022-08-10T13:05:04.030Z,28.00
2022-08-10T13:06:09.668Z,28.00
2022-08-10T13:08:27.357Z,28.00
2022-08-10T13:08:58.480Z,27.80
2022-08-10T13:10:08.104Z,27.80
2022-08-10T13:11:26.263Z,27.60
2022-08-10T13:12:44.146Z,27.50
2022-08-10T13:13:53.747Z,27.30
2022-08-10T13:15:43.120Z,27.30
2022-08-10T13:16:34.052Z,27.10
2022-08-10T13:17:40.510Z,26.90
2022-08-10T13:18:49.019Z,26.80
2022-08-10T13:19:59.338Z,26.70
2022-08-10T13:21:20.752Z,26.60
2022-08-10T13:22:30.375Z,26.40
2022-08-10T13:23:42.145Z,26.40
2022-08-10T13:25:15.583Z,26.30
2022-08-10T13:26:23.581Z,26.20
2022-08-10T13:28:00.925Z,26.10
2022-08-10T13:29:12.912Z,26.10
2022-08-10T13:30:16.433Z,26.00
2022-08-10T13:32:03.220Z,27.30
2022-08-10T13:32:53.831Z,25.90
2022-08-10T13:34:39.683Z,25.90
2022-08-10T13:35:28.463Z,25.80
2022-08-10T13:36:35.991Z,25.90
2022-08-10T13:37:45.344Z,25.90
2022-08-10T13:38:50.337Z,26.10
2022-08-10T13:40:01.020Z,26.20
2022-08-10T13:41:06.460Z,26.30
2022-08-10T13:42:14.740Z,26.40
2022-08-10T13:43:22.429Z,26.60
2022-08-10T13:44:42.127Z,26.80
2022-08-10T13:45:51.893Z,26.90
2022-08-10T13:46:58.581Z,27.00
2022-08-10T13:48:10.511Z,27.10
2022-08-10T13:49:23.517Z,27.20
2022-08-10T13:50:33.516Z,27.40
2022-08-10T13:51:54.499Z,27.40
2022-08-10T13:53:04.475Z,27.50
2022-08-10T13:54:17.171Z,27.60
2022-08-10T13:55:54.488Z,27.90
2022-08-10T13:56:57.116Z,27.80
2022-08-10T13:58:02.908Z,28.00
2022-08-10T13:59:09.931Z,28.10
2022-08-10T14:00:37.629Z,27.90
2022-08-10T14:01:40.499Z,29.90
2022-08-10T14:02:50.975Z,28.10
2022-08-10T14:03:54.760Z,28.20
2022-08-10T14:05:03.158Z,28.20
2022-08-10T14:06:10.800Z,28.30
2022-08-10T14:07:18.488Z,28.40
2022-08-10T14:08:29.451Z,28.40
2022-08-10T14:09:36.202Z,26.00
2022-08-10T14:11:08.621Z,28.50
2022-08-10T14:12:11.756Z,28.50
2022-08-10T14:13:18.988Z,28.60
2022-08-10T14:14:28.869Z,28.50
2022-08-10T14:15:35.528Z,28.50
2022-08-10T14:16:45.539Z,28.40
2022-08-10T14:17:57.217Z,28.20
2022-08-10T14:19:06.074Z,28.20
2022-08-10T14:20:14.804Z,28.20
2022-08-10T14:21:23.759Z,28.10
2022-08-10T14:22:33.614Z,28.30
2022-08-10T14:23:52.935Z,28.20
2022-08-10T14:25:07.692Z,28.20
2022-08-10T14:26:16.950Z,28.00
2022-08-10T14:27:25.342Z,27.80
2022-08-10T14:28:55.935Z,28.90
2022-08-10T14:30:01.107Z,27.50
2022-08-10T14:31:07.021Z,27.40
2022-08-10T14:32:16.129Z,27.30
2022-08-10T14:33:23.867Z,27.20
2022-08-10T14:36:16.111Z,27.20
2022-08-10T14:36:21.464Z,27.20
2022-08-10T14:37:37.689Z,27.30
2022-08-10T14:38:46.243Z,26.90
2022-08-10T14:40:00.177Z,26.80
2022-08-10T14:41:14.907Z,26.80
2022-08-10T14:42:49.322Z,26.70
2022-08-10T14:43:58.352Z,26.50
2022-08-10T14:45:07.173Z,26.40
2022-08-10T14:46:18.195Z,26.20
2022-08-10T14:47:53.024Z,26.10
2022-08-10T14:48:55.798Z,26.00
2022-08-10T14:50:05.002Z,25.90
2022-08-10T14:51:11.417Z,25.90
2022-08-10T14:52:19.489Z,25.90
2022-08-10T14:53:38.376Z,25.90
2022-08-10T14:54:46.651Z,24.90
2022-08-10T14:55:59.093Z,25.70
2022-08-10T14:57:11.121Z,25.60
2022-08-10T14:58:23.297Z,25.50
2022-08-10T15:00:14.646Z,25.50
2022-08-10T15:00:58.155Z,25.40
2022-08-10T15:02:39.981Z,25.40
2022-08-10T15:03:58.705Z,25.40
2022-08-10T15:05:02.309Z,25.50
2022-08-10T15:06:18.027Z,25.40
2022-08-10T15:07:27.302Z,25.50
2022-08-10T15:08:36.648Z,25.40
2022-08-10T15:10:01.497Z,25.50
2022-08-10T15:11:09.456Z,25.50
2022-08-10T15:12:38.244Z,25.50
2022-08-10T15:14:15.197Z,25.50
2022-08-10T15:15:16.320Z,25.40
2022-08-10T15:16:22.373Z,25.40
2022-08-10T15:17:35.207Z,25.40
2022-08-10T15:18:58.540Z,25.40
2022-08-10T15:20:14.894Z,24.30
2022-08-10T15:21:23.699Z,25.50
2022-08-10T15:22:37.728Z,25.50
2022-08-10T15:24:05.780Z,25.50
2022-08-10T15:25:18.354Z,25.50
2022-08-10T15:26:29.376Z,25.50
2022-08-10T15:27:54.878Z,25.50
2022-08-10T15:29:23.778Z,25.70
2022-08-10T15:30:32.378Z,25.80
2022-08-10T15:31:57.266Z,25.80
2022-08-10T15:34:02.556Z,25.80
2022-08-10T15:35:08.959Z,25.80
2022-08-10T15:36:37.830Z,25.80
2022-08-10T15:37:45.524Z,25.70
2022-08-10T15:38:57.955Z,25.60
2022-08-10T15:40:24.274Z,25.50
2022-08-10T15:41:57.442Z,25.50
2022-08-10T15:43:20.272Z,25.50
2022-08-10T15:44:42.432Z,25.40
2022-08-10T15:45:50.175Z,25.50
2022-08-10T15:47:02.695Z,25.50
2022-08-10T15:48:07.797Z,25.50
2022-08-10T15:49:20.498Z,25.50
2022-08-10T15:50:31.482Z,25.60
2022-08-10T15:51:52.743Z,25.60
2022-08-10T15:53:04.279Z,24.40
2022-08-10T15:54:15.331Z,25.50
2022-08-10T15:55:43.191Z,25.50
2022-08-10T15:56:52.739Z,25.50
2022-08-10T15:58:04.895Z,25.50
2022-08-10T15:59:14.034Z,25.60
2022-08-10T16:00:20.743Z,25.40
2022-08-10T16:02:12.979Z,25.40
2022-08-10T16:03:17.933Z,25.40
2022-08-10T16:04:31.683Z,24.50
2022-08-10T16:06:01.357Z,25.30
2022-08-10T16:07:13.692Z,25.40
2022-08-10T16:08:29.043Z,25.30